Kristina — WDI5000 — position and weather

sailwx.info

Track history (hours):
 
Tides and Currents Weather Stations Pressure Air Temp Water Temp Dewpoint Dewpoint Depression Visibility Wind Speed Wind Dir Waves Ship Positions

Kristina

Owner: Harbor Breeze Corp, Long Beach, CA. More information available from US FCC via Universal Licensing System and Coast Guard Vessel Documentation Center.

Last reported at 2017-Sep-20 18:30 UTC. Time now 2017-Sep-20 18:37 UTC.
Position N 33°46' W 118°12'.

Length 24 m.

Type: Passenger vessel. MMSI: 367704150.

Date/timePositionNaut miles runAvg speedWind from/ knotsBaromVisibWave heightAir tempDewpointWater temp
2017-Sep-20 18:30N 33°46' W 118°12'0 0.0
2017-Sep-20 18:00N 33°46' W 118°12'0 0.0
2017-Sep-20 02:09N 33°46' W 118°12'2 5.5
2017-Sep-20 01:48N 33°45' W 118°10'2 6.2
2017-Sep-20 01:30N 33°46' W 118°12'0 0.0
2017-Sep-20 01:00N 33°46' W 118°12'1 1.5
2017-Sep-20 00:30N 33°45' W 118°11'1 1.5
2017-Sep-20 00:00N 33°46' W 118°12'0 0.0
2017-Sep-19 23:30N 33°46' W 118°12'1 2.5
2017-Sep-19 23:00N 33°46' W 118°10'1 2.5
2017-Sep-19 22:30N 33°46' W 118°12'0 0.0
2017-Sep-19 22:00N 33°46' W 118°12'1 2.6
2017-Sep-19 21:30N 33°45' W 118°10'1 2.7
2017-Sep-19 21:00N 33°46' W 118°12'0 0.0
2017-Sep-19 20:30N 33°46' W 118°12'2 3.2
2017-Sep-19 20:00N 33°44' W 118°11'2 3.2
2017-Sep-19 19:30N 33°46' W 118°12'2 3.4
2017-Sep-19 19:00N 33°44' W 118°10'2 3.5
2017-Sep-19 18:30N 33°46' W 118°12'0 0.0
2017-Sep-19 17:59N 33°46' W 118°12'0 0.0
2017-Sep-19 17:30N 33°46' W 118°12'0 0.0
2017-Sep-19 02:16N 33°46' W 118°12'2 6.3
2017-Sep-19 02:00N 33°45' W 118°10'2 3.3
2017-Sep-19 01:30N 33°46' W 118°12'0 0.0
2017-Sep-19 01:00N 33°46' W 118°12'2 3.7
2017-Sep-19 00:25N 33°44' W 118°10'2 5.2
2017-Sep-19 00:00N 33°46' W 118°12'0 0.0
2017-Sep-18 23:30N 33°46' W 118°12'2 3.2
2017-Sep-18 23:00N 33°45' W 118°10'2 3.1
2017-Sep-18 22:30N 33°46' W 118°12'0 0.0
2017-Sep-18 22:01N 33°46' W 118°12'2 3.1
2017-Sep-18 21:30N 33°45' W 118°10'2 3.1
2017-Sep-18 21:00N 33°46' W 118°12'0 0.0
2017-Sep-18 20:29N 33°46' W 118°12'1 3.2
2017-Sep-18 20:00N 33°44' W 118°11'1 0.1
2017-Sep-18 02:16N 33°46' W 118°12'2 6.1
2017-Sep-18 02:00N 33°45' W 118°10'2 3.2
2017-Sep-18 01:30N 33°46' W 118°12'0 0.0
2017-Sep-18 01:00N 33°46' W 118°12'2 3.9
2017-Sep-18 00:30N 33°44' W 118°10'2 3.8
2017-Sep-18 00:00N 33°46' W 118°12'0 0.0
2017-Sep-17 23:30N 33°46' W 118°12'2 3.8
2017-Sep-17 23:00N 33°45' W 118°10'2 3.7
2017-Sep-17 22:30N 33°46' W 118°12'0 0.0
2017-Sep-17 22:00N 33°46' W 118°12'2 4.2
2017-Sep-17 21:30N 33°44' W 118°10'2 4.3
2017-Sep-17 21:00N 33°46' W 118°12'0 0.0
2017-Sep-17 20:30N 33°46' W 118°12'2 4.1
2017-Sep-17 20:00N 33°44' W 118°10'2 0.5
2017-Sep-17 15:28N 33°46' W 118°12'0 0.0
2017-Sep-17 02:28N 33°46' W 118°12'2 4.7
2017-Sep-17 02:00N 33°44' W 118°10'2 4.3
2017-Sep-17 01:29N 33°46' W 118°12'0 0.0
2017-Sep-17 01:00N 33°46' W 118°12'2 4.2
2017-Sep-17 00:30N 33°44' W 118°10'2 4.2
2017-Sep-17 00:00N 33°46' W 118°12'0 0.0
2017-Sep-16 23:30N 33°46' W 118°12'2 3.7
2017-Sep-16 23:00N 33°45' W 118°10'2 3.6
2017-Sep-16 22:30N 33°46' W 118°12'0 0.0
2017-Sep-16 22:00N 33°46' W 118°12'2 4.1
2017-Sep-16 21:30N 33°44' W 118°10'2 4.1
2017-Sep-16 21:00N 33°46' W 118°12'0 0.0
2017-Sep-16 20:28N 33°46' W 118°12'2 3.7
2017-Sep-16 20:00N 33°45' W 118°10'2 3.4
2017-Sep-16 19:30N 33°46' W 118°12'0 0.0
2017-Sep-16 19:00N 33°46' W 118°12'0 0.0
2017-Sep-16 18:28N 33°46' W 118°12'0 1.0
2017-Sep-16 18:00N 33°45' W 118°11'5 9.9
2017-Sep-16 17:30N 33°40' W 118°11'3 6.2
2017-Sep-16 17:00N 33°43' W 118°11'2 4.7
2017-Sep-16 16:30N 33°46' W 118°12'0 0.0
2017-Sep-16 02:14N 33°46' W 118°12'2 6.8
2017-Sep-16 02:00N 33°45' W 118°10'2 3.1
2017-Sep-16 01:30N 33°46' W 118°12'0 0.0
2017-Sep-16 01:00N 33°46' W 118°12'2 3.8
2017-Sep-16 00:30N 33°45' W 118°10'2 3.8
2017-Sep-16 00:00N 33°46' W 118°12'0 0.0
2017-Sep-15 23:30N 33°46' W 118°12'2 3.5
2017-Sep-15 23:00N 33°45' W 118°10'2 3.4
2017-Sep-15 22:30N 33°46' W 118°12'0 0.0
2017-Sep-15 22:00N 33°46' W 118°12'2 3.6
2017-Sep-15 21:30N 33°45' W 118°10'2 3.6
2017-Sep-15 21:00N 33°46' W 118°12'0 0.0
2017-Sep-15 20:30N 33°46' W 118°12'1 3.0
2017-Sep-15 20:00N 33°45' W 118°11'1 3.0
2017-Sep-15 19:30N 33°46' W 118°12'2 3.1
2017-Sep-15 19:00N 33°44' W 118°11'2 3.0
2017-Sep-15 18:29N 33°46' W 118°12'4 2.2
2017-Sep-15 16:30N 33°44' W 118°16'0 0.1
2017-Sep-15 16:00N 33°44' W 118°16'4 8.8
2017-Sep-15 15:30N 33°44' W 118°11'1 0.1
2017-Sep-15 01:45N 33°45' W 118°10'2 7.6
2017-Sep-15 01:31N 33°45' W 118°11'0 0.8
2017-Sep-15 01:01N 33°46' W 118°12'2 3.2
2017-Sep-15 00:26N 33°45' W 118°10'2 4.2
2017-Sep-15 00:00N 33°46' W 118°12'0 0.0
2017-Sep-14 23:30N 33°46' W 118°12'1 2.8
2017-Sep-14 23:01N 33°46' W 118°10'1 2.8
2017-Sep-14 22:31N 33°46' W 118°12'0 0.0
2017-Sep-14 22:01N 33°46' W 118°12'1 2.0
2017-Sep-14 21:31N 33°46' W 118°10'1 2.0
2017-Sep-14 21:01N 33°46' W 118°12'0 0.0
2017-Sep-14 20:31N 33°46' W 118°12'2 3.2
2017-Sep-14 20:01N 33°44' W 118°11'2 3.1
2017-Sep-14 19:30N 33°46' W 118°12'2 3.4
2017-Sep-14 19:01N 33°44' W 118°10'2 3.3
2017-Sep-14 18:30N 33°46' W 118°12'0 0.0
2017-Sep-14 18:00N 33°46' W 118°12'0 0.0
2017-Sep-14 02:08N 33°46' W 118°12'0 0.0
2017-Sep-14 02:00N 33°46' W 118°12'1 1.8
2017-Sep-14 01:30N 33°45' W 118°11'1 1.8
2017-Sep-14 01:00N 33°46' W 118°12'2 3.5
2017-Sep-14 00:26N 33°45' W 118°09'2 4.6
2017-Sep-14 00:01N 33°46' W 118°12'0 0.0
2017-Sep-13 23:30N 33°46' W 118°12'2 3.6
2017-Sep-13 23:00N 33°45' W 118°10'2 3.7
2017-Sep-13 22:30N 33°46' W 118°12'0 0.0
2017-Sep-13 22:00N 33°46' W 118°12'1 2.2
2017-Sep-13 21:30N 33°46' W 118°10'1 2.1
2017-Sep-13 21:00N 33°46' W 118°12'0 0.0
2017-Sep-13 20:30N 33°46' W 118°12'2 3.6
2017-Sep-13 20:00N 33°44' W 118°10'2 3.6
2017-Sep-13 19:30N 33°46' W 118°12'2 3.3
2017-Sep-13 19:00N 33°44' W 118°10'1 0.8
2017-Sep-13 17:36N 33°45' W 118°11'1 5.9
2017-Sep-13 17:30N 33°46' W 118°12'  
2017-Sep-11 02:58N 33°46' W 118°12'0 0.0
2017-Sep-11 02:30N 33°46' W 118°12'2 3.6
2017-Sep-11 02:00N 33°45' W 118°10'2 3.6
2017-Sep-11 01:30N 33°46' W 118°12'0 0.0
2017-Sep-11 01:00N 33°46' W 118°12'2 3.9
2017-Sep-11 00:30N 33°44' W 118°10'2 3.9
2017-Sep-11 00:00N 33°46' W 118°12'0 0.0
2017-Sep-10 23:31N 33°46' W 118°12'2 3.9
2017-Sep-10 23:01N 33°44' W 118°10'2 3.9
2017-Sep-10 22:31N 33°46' W 118°12'0 0.0
2017-Sep-10 22:00N 33°46' W 118°12'2 4.4
2017-Sep-10 21:30N 33°44' W 118°10'2 4.4
2017-Sep-10 21:00N 33°46' W 118°12'0 0.0
2017-Sep-10 20:30N 33°46' W 118°12'2 3.8
2017-Sep-10 20:00N 33°45' W 118°10'2 3.8
2017-Sep-10 19:30N 33°46' W 118°12'0 0.0
2017-Sep-10 19:00N 33°46' W 118°12'0 0.0
2017-Sep-10 18:30N 33°46' W 118°12'  
Track history (hours):
 
Tides and Currents Weather Stations Pressure Air Temp Water Temp Dewpoint Dewpoint Depression Visibility Wind Speed Wind Dir Waves Ship Positions

Kristina

Owner: Harbor Breeze Corp, Long Beach, CA. More information available from US FCC via Universal Licensing System and Coast Guard Vessel Documentation Center.

Last reported at 2017-Sep-20 18:30 UTC. Time now 2017-Sep-20 18:37 UTC.
Position N 33°46' W 118°12'.

Length 24 m.

Type: Passenger vessel. MMSI: 367704150.

Date/timePositionNaut miles runAvg speedWind from/ knotsBaromVisibWave heightAir tempDewpointWater temp
2017-Sep-20 18:30N 33°46' W 118°12'0 0.0
2017-Sep-20 18:00N 33°46' W 118°12'0 0.0
2017-Sep-20 02:09N 33°46' W 118°12'2 5.5
2017-Sep-20 01:48N 33°45' W 118°10'2 6.2
2017-Sep-20 01:30N 33°46' W 118°12'0 0.0
2017-Sep-20 01:00N 33°46' W 118°12'1 1.5
2017-Sep-20 00:30N 33°45' W 118°11'1 1.5
2017-Sep-20 00:00N 33°46' W 118°12'0 0.0
2017-Sep-19 23:30N 33°46' W 118°12'1 2.5
2017-Sep-19 23:00N 33°46' W 118°10'1 2.5
2017-Sep-19 22:30N 33°46' W 118°12'0 0.0
2017-Sep-19 22:00N 33°46' W 118°12'1 2.6
2017-Sep-19 21:30N 33°45' W 118°10'1 2.7
2017-Sep-19 21:00N 33°46' W 118°12'0 0.0
2017-Sep-19 20:30N 33°46' W 118°12'2 3.2
2017-Sep-19 20:00N 33°44' W 118°11'2 3.2
2017-Sep-19 19:30N 33°46' W 118°12'2 3.4
2017-Sep-19 19:00N 33°44' W 118°10'2 3.5
2017-Sep-19 18:30N 33°46' W 118°12'0 0.0
2017-Sep-19 17:59N 33°46' W 118°12'0 0.0
2017-Sep-19 17:30N 33°46' W 118°12'0 0.0
2017-Sep-19 02:16N 33°46' W 118°12'2 6.3
2017-Sep-19 02:00N 33°45' W 118°10'2 3.3
2017-Sep-19 01:30N 33°46' W 118°12'0 0.0
2017-Sep-19 01:00N 33°46' W 118°12'2 3.7
2017-Sep-19 00:25N 33°44' W 118°10'2 5.2
2017-Sep-19 00:00N 33°46' W 118°12'0 0.0
2017-Sep-18 23:30N 33°46' W 118°12'2 3.2
2017-Sep-18 23:00N 33°45' W 118°10'2 3.1
2017-Sep-18 22:30N 33°46' W 118°12'0 0.0
2017-Sep-18 22:01N 33°46' W 118°12'2 3.1
2017-Sep-18 21:30N 33°45' W 118°10'2 3.1
2017-Sep-18 21:00N 33°46' W 118°12'0 0.0
2017-Sep-18 20:29N 33°46' W 118°12'1 3.2
2017-Sep-18 20:00N 33°44' W 118°11'1 0.1
2017-Sep-18 02:16N 33°46' W 118°12'2 6.1
2017-Sep-18 02:00N 33°45' W 118°10'2 3.2
2017-Sep-18 01:30N 33°46' W 118°12'0 0.0
2017-Sep-18 01:00N 33°46' W 118°12'2 3.9
2017-Sep-18 00:30N 33°44' W 118°10'2 3.8
2017-Sep-18 00:00N 33°46' W 118°12'0 0.0
2017-Sep-17 23:30N 33°46' W 118°12'2 3.8
2017-Sep-17 23:00N 33°45' W 118°10'2 3.7
2017-Sep-17 22:30N 33°46' W 118°12'0 0.0
2017-Sep-17 22:00N 33°46' W 118°12'2 4.2
2017-Sep-17 21:30N 33°44' W 118°10'2 4.3
2017-Sep-17 21:00N 33°46' W 118°12'0 0.0
2017-Sep-17 20:30N 33°46' W 118°12'2 4.1
2017-Sep-17 20:00N 33°44' W 118°10'2 0.5
2017-Sep-17 15:28N 33°46' W 118°12'0 0.0
2017-Sep-17 02:28N 33°46' W 118°12'2 4.7
2017-Sep-17 02:00N 33°44' W 118°10'2 4.3
2017-Sep-17 01:29N 33°46' W 118°12'0 0.0
2017-Sep-17 01:00N 33°46' W 118°12'2 4.2
2017-Sep-17 00:30N 33°44' W 118°10'2 4.2
2017-Sep-17 00:00N 33°46' W 118°12'0 0.0
2017-Sep-16 23:30N 33°46' W 118°12'2 3.7
2017-Sep-16 23:00N 33°45' W 118°10'2 3.6
2017-Sep-16 22:30N 33°46' W 118°12'0 0.0
2017-Sep-16 22:00N 33°46' W 118°12'2 4.1
2017-Sep-16 21:30N 33°44' W 118°10'2 4.1
2017-Sep-16 21:00N 33°46' W 118°12'0 0.0
2017-Sep-16 20:28N 33°46' W 118°12'2 3.7
2017-Sep-16 20:00N 33°45' W 118°10'2 3.4
2017-Sep-16 19:30N 33°46' W 118°12'0 0.0
2017-Sep-16 19:00N 33°46' W 118°12'0 0.0
2017-Sep-16 18:28N 33°46' W 118°12'0 1.0
2017-Sep-16 18:00N 33°45' W 118°11'5 9.9
2017-Sep-16 17:30N 33°40' W 118°11'3 6.2
2017-Sep-16 17:00N 33°43' W 118°11'2 4.7
2017-Sep-16 16:30N 33°46' W 118°12'0 0.0
2017-Sep-16 02:14N 33°46' W 118°12'2 6.8
2017-Sep-16 02:00N 33°45' W 118°10'2 3.1
2017-Sep-16 01:30N 33°46' W 118°12'0 0.0
2017-Sep-16 01:00N 33°46' W 118°12'2 3.8
2017-Sep-16 00:30N 33°45' W 118°10'2 3.8
2017-Sep-16 00:00N 33°46' W 118°12'0 0.0
2017-Sep-15 23:30N 33°46' W 118°12'2 3.5
2017-Sep-15 23:00N 33°45' W 118°10'2 3.4
2017-Sep-15 22:30N 33°46' W 118°12'0 0.0
2017-Sep-15 22:00N 33°46' W 118°12'2 3.6
2017-Sep-15 21:30N 33°45' W 118°10'2 3.6
2017-Sep-15 21:00N 33°46' W 118°12'0 0.0
2017-Sep-15 20:30N 33°46' W 118°12'1 3.0
2017-Sep-15 20:00N 33°45' W 118°11'1 3.0
2017-Sep-15 19:30N 33°46' W 118°12'2 3.1
2017-Sep-15 19:00N 33°44' W 118°11'2 3.0
2017-Sep-15 18:29N 33°46' W 118°12'4 2.2
2017-Sep-15 16:30N 33°44' W 118°16'0 0.1
2017-Sep-15 16:00N 33°44' W 118°16'4 8.8
2017-Sep-15 15:30N 33°44' W 118°11'1 0.1
2017-Sep-15 01:45N 33°45' W 118°10'2 7.6
2017-Sep-15 01:31N 33°45' W 118°11'0 0.8
2017-Sep-15 01:01N 33°46' W 118°12'2 3.2
2017-Sep-15 00:26N 33°45' W 118°10'2 4.2
2017-Sep-15 00:00N 33°46' W 118°12'0 0.0
2017-Sep-14 23:30N 33°46' W 118°12'1 2.8
2017-Sep-14 23:01N 33°46' W 118°10'1 2.8
2017-Sep-14 22:31N 33°46' W 118°12'0 0.0
2017-Sep-14 22:01N 33°46' W 118°12'1 2.0
2017-Sep-14 21:31N 33°46' W 118°10'1 2.0
2017-Sep-14 21:01N 33°46' W 118°12'0 0.0
2017-Sep-14 20:31N 33°46' W 118°12'2 3.2
2017-Sep-14 20:01N 33°44' W 118°11'2 3.1
2017-Sep-14 19:30N 33°46' W 118°12'2 3.4
2017-Sep-14 19:01N 33°44' W 118°10'2 3.3
2017-Sep-14 18:30N 33°46' W 118°12'0 0.0
2017-Sep-14 18:00N 33°46' W 118°12'0 0.0
2017-Sep-14 02:08N 33°46' W 118°12'0 0.0
2017-Sep-14 02:00N 33°46' W 118°12'1 1.8
2017-Sep-14 01:30N 33°45' W 118°11'1 1.8
2017-Sep-14 01:00N 33°46' W 118°12'2 3.5
2017-Sep-14 00:26N 33°45' W 118°09'2 4.6
2017-Sep-14 00:01N 33°46' W 118°12'0 0.0
2017-Sep-13 23:30N 33°46' W 118°12'2 3.6
2017-Sep-13 23:00N 33°45' W 118°10'2 3.7
2017-Sep-13 22:30N 33°46' W 118°12'0 0.0
2017-Sep-13 22:00N 33°46' W 118°12'1 2.2
2017-Sep-13 21:30N 33°46' W 118°10'1 2.1
2017-Sep-13 21:00N 33°46' W 118°12'0 0.0
2017-Sep-13 20:30N 33°46' W 118°12'2 3.6
2017-Sep-13 20:00N 33°44' W 118°10'2 3.6
2017-Sep-13 19:30N 33°46' W 118°12'2 3.3
2017-Sep-13 19:00N 33°44' W 118°10'1 0.8
2017-Sep-13 17:36N 33°45' W 118°11'1 5.9
2017-Sep-13 17:30N 33°46' W 118°12'  
2017-Sep-11 02:58N 33°46' W 118°12'0 0.0
2017-Sep-11 02:30N 33°46' W 118°12'2 3.6
2017-Sep-11 02:00N 33°45' W 118°10'2 3.6
2017-Sep-11 01:30N 33°46' W 118°12'0 0.0
2017-Sep-11 01:00N 33°46' W 118°12'2 3.9
2017-Sep-11 00:30N 33°44' W 118°10'2 3.9
2017-Sep-11 00:00N 33°46' W 118°12'0 0.0
2017-Sep-10 23:31N 33°46' W 118°12'2 3.9
2017-Sep-10 23:01N 33°44' W 118°10'2 3.9
2017-Sep-10 22:31N 33°46' W 118°12'0 0.0
2017-Sep-10 22:00N 33°46' W 118°12'2 4.4
2017-Sep-10 21:30N 33°44' W 118°10'2 4.4
2017-Sep-10 21:00N 33°46' W 118°12'0 0.0
2017-Sep-10 20:30N 33°46' W 118°12'2 3.8
2017-Sep-10 20:00N 33°45' W 118°10'2 3.8
2017-Sep-10 19:30N 33°46' W 118°12'0 0.0
2017-Sep-10 19:00N 33°46' W 118°12'0 0.0
2017-Sep-10 18:30N 33°46' W 118°12'  

Dump ship's entire track history